createdAt,value
2022-09-29T00:00:28.876Z,95
2022-09-29T00:01:22.460Z,95
2022-09-29T00:02:25.055Z,95
2022-09-29T00:03:29.080Z,96
2022-09-29T00:04:28.010Z,96
2022-09-29T00:05:22.618Z,96
2022-09-29T00:06:25.025Z,96
2022-09-29T00:07:28.828Z,96
2022-09-29T00:08:25.873Z,96
2022-09-29T00:09:28.133Z,96
2022-09-29T00:10:21.809Z,96
2022-09-29T00:11:25.901Z,96
2022-09-29T00:12:20.249Z,96
2022-09-29T00:13:31.053Z,96
2022-09-29T00:14:20.956Z,96
2022-09-29T00:15:24.584Z,96
2022-09-29T00:16:22.770Z,96
2022-09-29T00:17:26.727Z,96
2022-09-29T00:18:24.396Z,96
2022-09-29T00:19:21.766Z,96
2022-09-29T00:20:31.031Z,96
2022-09-29T00:21:27.749Z,95
2022-09-29T00:22:22.127Z,95
2022-09-29T00:23:23.514Z,95
2022-09-29T00:24:30.387Z,95
2022-09-29T00:25:24.820Z,95
2022-09-29T00:26:21.259Z,95
2022-09-29T00:27:31.189Z,95
2022-09-29T00:28:28.177Z,95
2022-09-29T00:29:23.542Z,95
2022-09-29T00:30:26.805Z,95
2022-09-29T00:31:28.564Z,95
2022-09-29T00:32:28.135Z,95
2022-09-29T00:33:20.167Z,95
2022-09-29T00:34:23.135Z,95
2022-09-29T00:35:28.490Z,95
2022-09-29T00:36:27.890Z,95
2022-09-29T00:37:32.348Z,95
2022-09-29T00:38:32.390Z,95
2022-09-29T00:39:24.522Z,95
2022-09-29T00:40:24.405Z,96
2022-09-29T00:41:24.923Z,96
2022-09-29T00:42:26.511Z,96
2022-09-29T00:43:23.062Z,96
2022-09-29T00:44:22.832Z,96
2022-09-29T00:45:20.438Z,96
2022-09-29T00:46:26.226Z,96
2022-09-29T00:47:20.840Z,96
2022-09-29T00:48:20.496Z,96
2022-09-29T00:49:29.179Z,96
2022-09-29T00:50:22.545Z,96
2022-09-29T00:51:27.018Z,96
2022-09-29T00:52:23.764Z,96
2022-09-29T00:53:24.473Z,96
2022-09-29T00:54:22.121Z,96
2022-09-29T00:55:23.534Z,96
2022-09-29T00:56:26.335Z,96
2022-09-29T00:57:24.786Z,96
2022-09-29T00:58:32.190Z,96
2022-09-29T00:59:28.223Z,95
2022-09-29T01:00:32.793Z,95
2022-09-29T01:01:28.555Z,95
2022-09-29T02:16:29.139Z,96
2022-09-29T02:17:27.786Z,96
2022-09-29T02:18:24.408Z,96
2022-09-29T02:19:26.284Z,96
2022-09-29T02:20:30.340Z,96
2022-09-29T03:33:36.419Z,96
2022-09-29T03:34:39.625Z,96
2022-09-29T03:35:22.146Z,96
2022-09-29T03:37:50.412Z,96
2022-09-29T03:38:07.611Z,95
2022-09-29T03:39:21.754Z,95
2022-09-29T03:40:28.936Z,95
2022-09-29T03:41:25.633Z,95
2022-09-29T03:42:21.490Z,96
2022-09-29T03:43:31.703Z,96
2022-09-29T03:44:26.870Z,96
2022-09-29T03:45:23.431Z,96
2022-09-29T03:46:26.515Z,95
2022-09-29T03:47:28.693Z,95
2022-09-29T03:48:28.184Z,94
2022-09-29T03:49:20.635Z,94
2022-09-29T03:50:33.462Z,94
2022-09-29T03:51:29.234Z,95
2022-09-29T03:52:26.788Z,95
2022-09-29T03:53:20.822Z,94
2022-09-29T03:54:24.015Z,94
2022-09-29T03:55:45.556Z,94
2022-09-29T03:56:23.462Z,94
2022-09-29T03:57:21.843Z,94
2022-09-29T03:58:26.842Z,94
2022-09-29T03:59:24.217Z,94
2022-09-29T04:00:22.898Z,94
2022-09-29T04:01:30.517Z,95
2022-09-29T04:02:24.631Z,94
2022-09-29T04:03:25.294Z,94
2022-09-29T04:04:28.619Z,94
2022-09-29T04:05:22.765Z,94
2022-09-29T04:06:24.899Z,94
2022-09-29T04:07:25.644Z,93
2022-09-29T04:08:30.885Z,93
2022-09-29T04:09:28.604Z,92
2022-09-29T04:10:20.609Z,93
2022-09-29T04:11:21.648Z,93
2022-09-29T04:12:26.905Z,93
2022-09-29T04:13:25.089Z,93
2022-09-29T04:14:28.729Z,94
2022-09-29T04:15:28.344Z,94
2022-09-29T04:16:26.847Z,94
2022-09-29T04:17:23.260Z,93
2022-09-29T04:18:23.633Z,93
2022-09-29T04:19:26.862Z,92
2022-09-29T04:20:21.063Z,93
2022-09-29T04:21:32.606Z,92
2022-09-29T04:22:22.934Z,92
2022-09-29T04:23:29.286Z,92
2022-09-29T04:24:20.751Z,93
2022-09-29T04:25:29.961Z,92
2022-09-29T04:26:27.679Z,93
2022-09-29T04:27:23.605Z,94
2022-09-29T04:28:30.914Z,94
2022-09-29T04:29:24.330Z,94
2022-09-29T04:30:26.306Z,94
2022-09-29T04:31:21.352Z,94
2022-09-29T04:32:24.674Z,94
2022-09-29T04:33:23.759Z,94
2022-09-29T04:34:26.280Z,95
2022-09-29T04:35:24.245Z,94
2022-09-29T04:36:28.260Z,94
2022-09-29T04:37:26.133Z,94
2022-09-29T04:38:20.496Z,93
2022-09-29T04:39:28.032Z,93
2022-09-29T04:40:21.407Z,93
2022-09-29T04:41:22.528Z,93
2022-09-29T04:42:24.696Z,93
2022-09-29T04:43:28.767Z,93
2022-09-29T04:44:25.857Z,93
2022-09-29T04:45:21.570Z,93
2022-09-29T04:46:33.049Z,93
2022-09-29T04:47:24.546Z,93
2022-09-29T04:48:22.432Z,93
2022-09-29T04:49:28.474Z,92
2022-09-29T04:50:21.448Z,93
2022-09-29T04:51:24.843Z,93
2022-09-29T04:52:24.010Z,94
2022-09-29T04:53:34.723Z,94
2022-09-29T04:54:26.869Z,94
2022-09-29T04:55:22.517Z,94
2022-09-29T04:56:26.730Z,95
2022-09-29T04:57:25.338Z,95
2022-09-29T04:58:21.745Z,95
2022-09-29T04:59:24.444Z,95
2022-09-29T05:00:30.560Z,95
2022-09-29T05:01:31.315Z,95
2022-09-29T05:02:27.792Z,95
2022-09-29T05:03:32.591Z,95
2022-09-29T05:04:32.060Z,95
2022-09-29T05:05:24.928Z,95
2022-09-29T05:06:22.415Z,95
2022-09-29T05:07:23.770Z,96
2022-09-29T05:08:29.424Z,96
2022-09-29T05:09:32.967Z,96
2022-09-29T05:10:22.542Z,96
2022-09-29T05:11:32.235Z,96
2022-09-29T05:12:27.934Z,96
2022-09-29T05:13:20.713Z,96
2022-09-29T05:14:33.540Z,96
2022-09-29T05:15:44.490Z,96
2022-09-29T05:16:24.567Z,96
2022-09-29T05:17:25.082Z,96
2022-09-29T05:18:25.452Z,96
2022-09-29T05:19:34.766Z,96
2022-09-29T05:20:32.434Z,95
2022-09-29T05:21:49.236Z,95
2022-09-29T05:22:28.117Z,95
2022-09-29T05:23:31.433Z,94
2022-09-29T05:24:28.847Z,94
2022-09-29T05:25:24.844Z,94
2022-09-29T05:26:36.956Z,94
2022-09-29T05:27:20.693Z,93
2022-09-29T05:28:23.714Z,93
2022-09-29T05:29:29.711Z,93
2022-09-29T05:30:22.649Z,93
2022-09-29T05:31:33.436Z,93
2022-09-29T05:32:29.966Z,93
2022-09-29T05:33:38.113Z,93
2022-09-29T05:34:23.597Z,94
2022-09-29T05:35:27.699Z,93
2022-09-29T05:36:26.429Z,92
2022-09-29T05:37:24.007Z,93
2022-09-29T05:38:38.844Z,93
2022-09-29T05:39:31.740Z,93
2022-09-29T05:40:25.452Z,93
2022-09-29T05:41:21.073Z,93
2022-09-29T05:42:31.014Z,94
2022-09-29T05:43:23.663Z,94
2022-09-29T05:44:22.445Z,94
2022-09-29T05:45:20.695Z,93
2022-09-29T05:46:21.638Z,93
2022-09-29T05:47:25.180Z,94
2022-09-29T05:48:31.969Z,93
2022-09-29T05:49:32.859Z,94
2022-09-29T05:50:26.950Z,94
2022-09-29T05:51:55.000Z,93
2022-09-29T05:52:28.106Z,93
2022-09-29T05:53:28.748Z,93
2022-09-29T05:54:28.272Z,92
2022-09-29T05:55:23.518Z,93
2022-09-29T05:56:31.644Z,93
2022-09-29T05:57:32.378Z,93
2022-09-29T05:58:22.423Z,93
2022-09-29T05:59:27.592Z,93
2022-09-29T06:00:44.267Z,93
2022-09-29T06:01:27.268Z,94
2022-09-29T06:02:30.348Z,94
2022-09-29T06:03:25.278Z,93
2022-09-29T06:04:27.960Z,94
2022-09-29T06:05:29.753Z,94
2022-09-29T06:06:22.364Z,94
2022-09-29T06:07:45.800Z,94
2022-09-29T06:08:43.873Z,95
2022-09-29T06:09:24.906Z,95
2022-09-29T06:10:30.781Z,95
2022-09-29T06:11:26.721Z,95
2022-09-29T06:12:30.837Z,95
2022-09-29T06:13:27.925Z,95
2022-09-29T06:14:19.791Z,94
2022-09-29T06:15:32.756Z,94
2022-09-29T06:16:40.403Z,95
2022-09-29T06:17:29.896Z,95
2022-09-29T06:18:28.537Z,95
2022-09-29T06:19:26.415Z,94
2022-09-29T06:20:23.495Z,94
2022-09-29T06:21:25.311Z,94
2022-09-29T06:22:25.446Z,94
2022-09-29T06:23:43.657Z,94
2022-09-29T06:24:37.778Z,94
2022-09-29T06:25:28.482Z,93
2022-09-29T06:26:24.580Z,93
2022-09-29T06:27:35.665Z,93
2022-09-29T06:28:30.480Z,94
2022-09-29T06:29:24.837Z,94
2022-09-29T06:30:20.679Z,94
2022-09-29T06:31:23.676Z,94
2022-09-29T06:32:23.570Z,94
2022-09-29T06:33:24.605Z,94
2022-09-29T06:34:35.467Z,94
2022-09-29T06:35:43.976Z,95
2022-09-29T06:36:25.250Z,95
2022-09-29T06:37:20.687Z,95
2022-09-29T06:38:32.453Z,95
2022-09-29T06:39:31.634Z,94
2022-09-29T06:40:25.274Z,94
2022-09-29T06:41:25.051Z,93
2022-09-29T06:42:32.320Z,94
2022-09-29T06:43:27.145Z,93
2022-09-29T06:44:21.417Z,93
2022-09-29T06:45:43.366Z,92
2022-09-29T06:46:43.017Z,93
2022-09-29T06:47:23.009Z,93
2022-09-29T06:48:25.195Z,92
2022-09-29T06:49:28.874Z,93
2022-09-29T06:50:24.571Z,93
2022-09-29T06:51:33.642Z,93
2022-09-29T06:52:32.985Z,93
2022-09-29T06:53:38.049Z,93
2022-09-29T06:54:22.507Z,93
2022-09-29T06:55:34.620Z,93
2022-09-29T06:56:24.178Z,93
2022-09-29T06:57:36.063Z,93
2022-09-29T06:58:22.937Z,92
2022-09-29T06:59:30.964Z,93
2022-09-29T07:00:32.171Z,93
2022-09-29T07:01:25.955Z,93
2022-09-29T07:02:35.669Z,93
2022-09-29T07:03:31.948Z,93
2022-09-29T07:04:20.962Z,93
2022-09-29T07:05:21.430Z,94
2022-09-29T07:06:24.672Z,93
2022-09-29T07:07:26.737Z,93
2022-09-29T07:08:38.076Z,93
2022-09-29T07:09:33.003Z,93
2022-09-29T07:10:31.343Z,93
2022-09-29T07:11:26.058Z,93
2022-09-29T07:12:22.006Z,93
2022-09-29T07:13:27.720Z,93
2022-09-29T07:14:20.616Z,93
2022-09-29T07:15:25.541Z,93
2022-09-29T07:16:25.892Z,93
2022-09-29T07:17:34.014Z,94
2022-09-29T07:18:28.311Z,94
2022-09-29T07:19:22.967Z,94
2022-09-29T07:20:36.408Z,94
2022-09-29T07:21:27.878Z,93
2022-09-29T07:22:22.770Z,93
2022-09-29T07:23:33.853Z,93
2022-09-29T07:24:29.687Z,93
2022-09-29T07:25:49.929Z,94
2022-09-29T07:26:26.709Z,94
2022-09-29T07:27:30.543Z,94
2022-09-29T07:28:31.493Z,94
2022-09-29T07:29:26.054Z,94
2022-09-29T07:30:40.391Z,93
2022-09-29T07:31:29.527Z,93
2022-09-29T07:32:28.845Z,93
2022-09-29T07:33:35.894Z,93
2022-09-29T07:34:24.432Z,92
2022-09-29T07:35:26.662Z,92
2022-09-29T07:36:29.142Z,93
2022-09-29T07:37:22.155Z,93
2022-09-29T07:38:30.680Z,94
2022-09-29T07:39:25.663Z,93
2022-09-29T07:40:22.399Z,94
2022-09-29T07:41:32.790Z,94
2022-09-29T07:42:20.041Z,95
2022-09-29T07:43:23.928Z,95
2022-09-29T07:44:31.509Z,94
2022-09-29T07:45:29.640Z,94
2022-09-29T07:46:27.025Z,94
2022-09-29T07:47:22.238Z,94
2022-09-29T07:48:32.516Z,93
2022-09-29T07:49:29.898Z,94
2022-09-29T07:50:25.151Z,94
2022-09-29T07:51:33.743Z,94
2022-09-29T07:52:23.052Z,94
2022-09-29T07:53:27.149Z,94
2022-09-29T07:54:25.788Z,94
2022-09-29T07:55:25.302Z,94
2022-09-29T07:56:30.479Z,94
2022-09-29T07:57:23.896Z,94
2022-09-29T07:58:33.319Z,94
2022-09-29T07:59:23.712Z,94
2022-09-29T08:00:24.528Z,95
2022-09-29T08:01:22.585Z,95
2022-09-29T08:02:26.898Z,95
2022-09-29T08:03:29.344Z,94
2022-09-29T08:04:25.274Z,95
2022-09-29T08:05:34.196Z,95
2022-09-29T08:06:20.426Z,95
2022-09-29T08:07:24.564Z,95
2022-09-29T08:08:25.537Z,95
2022-09-29T08:09:40.389Z,95
2022-09-29T08:10:32.421Z,95
2022-09-29T08:11:31.151Z,95
2022-09-29T08:12:22.265Z,96
2022-09-29T08:13:23.528Z,96
2022-09-29T08:14:24.966Z,95
2022-09-29T08:15:22.831Z,95
2022-09-29T08:16:33.557Z,95
2022-09-29T08:17:30.219Z,95
2022-09-29T08:18:26.710Z,94
2022-09-29T08:19:26.355Z,94
2022-09-29T08:20:19.877Z,94
2022-09-29T08:21:26.383Z,93
2022-09-29T08:22:23.527Z,93
2022-09-29T08:23:32.363Z,93
2022-09-29T08:24:21.583Z,94
2022-09-29T08:25:24.224Z,94
2022-09-29T08:26:42.647Z,94
2022-09-29T08:27:23.820Z,94
2022-09-29T08:28:31.329Z,94
2022-09-29T08:29:22.295Z,94
2022-09-29T08:30:30.685Z,93
2022-09-29T08:31:28.246Z,93
2022-09-29T08:32:22.879Z,94
2022-09-29T08:33:35.606Z,94
2022-09-29T08:34:30.042Z,92
2022-09-29T08:35:23.570Z,93
2022-09-29T08:36:21.880Z,93
2022-09-29T08:37:31.972Z,93
2022-09-29T08:38:27.817Z,93
2022-09-29T08:39:24.781Z,93
2022-09-29T08:40:36.985Z,92
2022-09-29T08:41:32.870Z,92
2022-09-29T08:42:25.382Z,93
2022-09-29T08:43:31.626Z,92
2022-09-29T08:44:46.363Z,92
2022-09-29T08:45:28.014Z,93
2022-09-29T08:46:34.321Z,93
2022-09-29T08:47:47.029Z,92
2022-09-29T08:48:29.435Z,92
2022-09-29T08:49:33.071Z,91
2022-09-29T08:50:22.140Z,91
2022-09-29T08:51:41.761Z,92
2022-09-29T08:52:27.497Z,92
2022-09-29T08:53:28.597Z,91
2022-09-29T08:54:39.245Z,92
2022-09-29T08:55:30.650Z,91
2022-09-29T08:56:24.577Z,91
2022-09-29T08:57:21.015Z,91
2022-09-29T08:58:38.573Z,91
2022-09-29T08:59:31.089Z,90
2022-09-29T09:00:23.684Z,91
2022-09-29T09:01:32.959Z,91
2022-09-29T09:02:30.566Z,90
2022-09-29T09:03:28.081Z,90
2022-09-29T09:04:20.781Z,90
2022-09-29T09:05:24.331Z,90
2022-09-29T09:06:28.447Z,90
2022-09-29T09:07:26.925Z,91
2022-09-29T09:08:38.091Z,90
2022-09-29T09:09:35.622Z,90
2022-09-29T09:10:27.065Z,91
2022-09-29T09:11:21.610Z,90
2022-09-29T09:12:29.269Z,90
2022-09-29T09:13:23.264Z,91
2022-09-29T09:14:23.224Z,91
2022-09-29T09:15:22.343Z,90
2022-09-29T09:16:29.051Z,90
2022-09-29T09:17:27.274Z,90
2022-09-29T09:18:22.663Z,90
2022-09-29T09:19:33.312Z,89
2022-09-29T09:20:29.304Z,89
2022-09-29T09:21:27.652Z,89
2022-09-29T09:22:25.655Z,90
2022-09-29T09:23:29.766Z,90
2022-09-29T09:24:27.389Z,91
2022-09-29T09:25:21.071Z,90
2022-09-29T09:26:32.115Z,90
2022-09-29T09:27:30.489Z,90
2022-09-29T09:28:24.854Z,90
2022-09-29T09:29:31.606Z,91
2022-09-29T09:30:22.509Z,91
2022-09-29T09:31:25.899Z,91
2022-09-29T09:32:20.980Z,90
2022-09-29T09:33:31.863Z,89
2022-09-29T09:34:39.574Z,91
2022-09-29T09:35:24.707Z,90
2022-09-29T09:36:33.711Z,89
2022-09-29T09:37:33.442Z,90
2022-09-29T09:38:25.757Z,90
2022-09-29T09:39:23.101Z,90
2022-09-29T09:40:22.812Z,89
2022-09-29T09:41:26.690Z,89
2022-09-29T09:42:26.041Z,89
2022-09-29T09:43:23.099Z,90
2022-09-29T09:44:30.112Z,90
2022-09-29T09:45:28.240Z,91
2022-09-29T09:46:23.627Z,90
2022-09-29T09:47:28.154Z,89
2022-09-29T09:48:31.685Z,90
2022-09-29T09:49:25.052Z,91
2022-09-29T09:50:31.766Z,91
2022-09-29T09:51:24.477Z,89
2022-09-29T09:52:27.299Z,88
2022-09-29T09:53:22.407Z,90
2022-09-29T09:54:26.830Z,90
2022-09-29T09:55:27.960Z,90
2022-09-29T09:56:24.016Z,90
2022-09-29T09:57:36.075Z,90
2022-09-29T09:58:26.640Z,90
2022-09-29T09:59:25.880Z,90
2022-09-29T10:00:22.525Z,90
2022-09-29T10:01:31.074Z,90
2022-09-29T10:02:26.697Z,89
2022-09-29T10:03:25.186Z,90
2022-09-29T10:04:38.907Z,90
2022-09-29T10:05:24.870Z,89
2022-09-29T10:06:21.413Z,90
2022-09-29T10:07:24.175Z,91
2022-09-29T10:08:21.796Z,90
2022-09-29T10:09:20.169Z,91
2022-09-29T10:10:23.905Z,90
2022-09-29T10:11:34.831Z,90
2022-09-29T10:12:30.175Z,90
2022-09-29T10:13:27.043Z,90
2022-09-29T10:14:21.388Z,90
2022-09-29T10:15:25.566Z,88
2022-09-29T10:16:28.453Z,89
2022-09-29T10:17:22.594Z,89
2022-09-29T10:18:33.840Z,90
2022-09-29T10:19:30.859Z,89
2022-09-29T10:20:26.878Z,89
2022-09-29T10:21:23.171Z,89
2022-09-29T10:22:33.436Z,89
2022-09-29T10:23:25.702Z,89
2022-09-29T10:24:23.303Z,89
2022-09-29T10:25:36.322Z,89
2022-09-29T10:26:30.748Z,88
2022-09-29T10:27:26.853Z,88
2022-09-29T10:28:22.883Z,87
2022-09-29T10:29:21.239Z,88
2022-09-29T10:30:33.602Z,86
2022-09-29T10:31:22.945Z,88
2022-09-29T10:32:32.812Z,88
2022-09-29T10:33:30.830Z,88
2022-09-29T10:34:24.919Z,88
2022-09-29T10:35:26.350Z,86
2022-09-29T10:36:24.460Z,87
2022-09-29T10:37:27.147Z,88
2022-09-29T10:38:23.680Z,88
2022-09-29T10:39:34.675Z,88
2022-09-29T10:40:32.405Z,86
2022-09-29T10:41:29.179Z,88
2022-09-29T10:42:20.996Z,87
2022-09-29T10:43:32.721Z,86
2022-09-29T10:44:29.960Z,86
2022-09-29T10:45:24.662Z,85
2022-09-29T10:46:24.091Z,85
2022-09-29T10:47:32.811Z,85
2022-09-29T10:48:28.149Z,86
2022-09-29T10:49:21.775Z,85
2022-09-29T10:50:36.814Z,85
2022-09-29T10:51:28.331Z,85
2022-09-29T10:52:29.520Z,84
2022-09-29T10:53:24.357Z,84
2022-09-29T10:54:28.629Z,86
2022-09-29T10:55:21.268Z,85
2022-09-29T10:56:21.993Z,85
2022-09-29T10:57:32.118Z,84
2022-09-29T10:58:44.488Z,84
2022-09-29T10:59:27.912Z,84
2022-09-29T11:00:30.974Z,84
2022-09-29T11:01:23.988Z,83
2022-09-29T11:02:24.774Z,84
2022-09-29T11:03:22.873Z,83
2022-09-29T11:04:34.968Z,78
2022-09-29T11:05:27.534Z,82
2022-09-29T11:06:22.821Z,80
2022-09-29T11:07:20.907Z,83
2022-09-29T11:08:25.420Z,81
2022-09-29T11:09:25.981Z,83
2022-09-29T11:10:31.885Z,83
2022-09-29T11:11:30.956Z,83
2022-09-29T11:12:25.144Z,81
2022-09-29T11:13:23.711Z,82
2022-09-29T11:14:25.514Z,81
2022-09-29T11:15:32.600Z,83
2022-09-29T11:16:27.525Z,77
2022-09-29T11:17:23.242Z,78
2022-09-29T11:18:28.777Z,79
2022-09-29T11:19:28.668Z,79
2022-09-29T11:20:22.763Z,80
2022-09-29T11:21:25.258Z,80
2022-09-29T11:22:21.389Z,82
2022-09-29T11:23:20.741Z,80
2022-09-29T11:24:21.732Z,83
2022-09-29T11:25:30.841Z,82
2022-09-29T11:26:28.712Z,83
2022-09-29T11:27:25.936Z,81
2022-09-29T11:28:28.975Z,83
2022-09-29T11:29:26.733Z,82
2022-09-29T11:30:25.102Z,79
2022-09-29T11:31:23.653Z,82
2022-09-29T11:32:26.557Z,79
2022-09-29T11:33:27.135Z,77
2022-09-29T11:34:23.079Z,77
2022-09-29T11:35:34.899Z,78
2022-09-29T11:36:29.659Z,83
2022-09-29T11:37:25.307Z,83
2022-09-29T11:38:23.638Z,82
2022-09-29T11:39:20.481Z,80
2022-09-29T11:40:25.077Z,80
2022-09-29T11:41:23.093Z,76
2022-09-29T11:42:34.356Z,78
2022-09-29T11:43:23.205Z,78
2022-09-29T11:44:26.624Z,73
2022-09-29T11:45:20.957Z,78
2022-09-29T11:46:27.707Z,78
2022-09-29T11:47:27.147Z,79
2022-09-29T11:48:27.310Z,79
2022-09-29T11:49:34.620Z,77
2022-09-29T11:50:26.611Z,77
2022-09-29T11:51:24.861Z,76
2022-09-29T11:52:25.633Z,75
2022-09-29T11:53:30.920Z,71
2022-09-29T11:54:22.956Z,76
2022-09-29T11:55:22.849Z,74
2022-09-29T11:56:34.290Z,76
2022-09-29T11:57:25.821Z,73
2022-09-29T11:58:27.627Z,71
2022-09-29T11:59:21.324Z,71
2022-09-29T12:00:22.020Z,72
2022-09-29T12:01:22.624Z,75
2022-09-29T12:02:23.057Z,63
2022-09-29T12:03:30.725Z,64
2022-09-29T12:04:28.714Z,65
2022-09-29T12:05:25.650Z,72
2022-09-29T12:06:20.892Z,70
2022-09-29T12:07:25.348Z,71
2022-09-29T12:08:23.585Z,72
2022-09-29T12:09:22.991Z,69
2022-09-29T12:10:35.196Z,58
2022-09-29T12:12:11.793Z,60
2022-09-29T12:12:29.925Z,63
2022-09-29T12:13:29.056Z,65
2022-09-29T12:14:27.643Z,64
2022-09-29T12:15:22.505Z,66
2022-09-29T12:16:23.659Z,53
2022-09-29T12:17:34.628Z,61
2022-09-29T12:18:29.072Z,64
2022-09-29T12:19:24.743Z,60
2022-09-29T12:20:24.174Z,61
2022-09-29T12:21:38.707Z,59
2022-09-29T12:22:33.154Z,53
2022-09-29T12:23:19.834Z,53
2022-09-29T12:24:23.637Z,57
2022-09-29T12:25:25.164Z,54
2022-09-29T12:26:25.158Z,58
2022-09-29T12:27:22.663Z,60
2022-09-29T12:28:31.388Z,62
2022-09-29T12:29:28.694Z,61
2022-09-29T12:30:21.648Z,64
2022-09-29T12:31:30.120Z,61
2022-09-29T12:32:20.571Z,61
2022-09-29T12:33:28.795Z,63
2022-09-29T12:34:21.629Z,60
2022-09-29T12:35:34.779Z,60
2022-09-29T12:36:19.819Z,58
2022-09-29T12:37:27.271Z,60
2022-09-29T12:38:20.781Z,62
2022-09-29T12:39:26.064Z,59
2022-09-29T12:40:25.092Z,54
2022-09-29T12:41:24.544Z,52
2022-09-29T12:42:28.164Z,49
2022-09-29T12:43:30.313Z,47
2022-09-29T12:44:28.935Z,52
2022-09-29T12:45:24.933Z,56
2022-09-29T12:46:30.317Z,47
2022-09-29T12:47:22.225Z,50
2022-09-29T12:48:20.994Z,42
2022-09-29T12:49:32.374Z,41
2022-09-29T12:50:26.774Z,42
2022-09-29T12:51:24.393Z,43
2022-09-29T12:52:29.091Z,51
2022-09-29T12:53:22.794Z,51
2022-09-29T12:54:29.068Z,46
2022-09-29T12:55:26.584Z,45
2022-09-29T12:56:35.150Z,47
2022-09-29T12:57:28.937Z,46
2022-09-29T12:58:25.901Z,51
2022-09-29T12:59:28.787Z,52
2022-09-29T13:00:30.268Z,52
2022-09-29T13:01:29.738Z,52
2022-09-29T13:02:23.512Z,54
2022-09-29T13:03:31.360Z,46
2022-09-29T13:04:26.854Z,44
2022-09-29T13:05:24.040Z,41
2022-09-29T13:06:23.759Z,42
2022-09-29T13:07:32.890Z,43
2022-09-29T13:08:30.058Z,45
2022-09-29T13:09:21.305Z,43
2022-09-29T13:10:29.131Z,46
2022-09-29T13:11:29.613Z,53
2022-09-29T13:12:23.936Z,49
2022-09-29T13:13:26.568Z,49
2022-09-29T13:14:28.787Z,48
2022-09-29T13:15:29.652Z,50
2022-09-29T13:16:24.697Z,49
2022-09-29T13:17:19.847Z,50
2022-09-29T13:18:26.697Z,54
2022-09-29T13:19:45.780Z,55
2022-09-29T13:20:28.626Z,57
2022-09-29T13:21:22.457Z,55
2022-09-29T13:22:25.862Z,54
2022-09-29T13:23:20.701Z,57
2022-09-29T13:24:24.777Z,47
2022-09-29T13:25:20.451Z,53
2022-09-29T13:26:22.686Z,54
2022-09-29T13:27:28.705Z,56
2022-09-29T13:28:35.439Z,56
2022-09-29T13:29:24.778Z,55
2022-09-29T13:30:21.574Z,55
2022-09-29T13:31:34.583Z,56
2022-09-29T13:32:27.245Z,54
2022-09-29T13:33:22.971Z,56
2022-09-29T13:34:34.815Z,52
2022-09-29T13:35:23.659Z,56
2022-09-29T13:36:30.788Z,56
2022-09-29T13:37:23.412Z,57
2022-09-29T13:38:23.903Z,55
2022-09-29T13:39:30.601Z,56
2022-09-29T13:40:27.874Z,57
2022-09-29T13:41:47.560Z,57
2022-09-29T13:42:26.116Z,56
2022-09-29T13:43:26.530Z,57
2022-09-29T13:44:22.368Z,50
2022-09-29T13:45:34.297Z,57
2022-09-29T13:46:23.180Z,55
2022-09-29T13:47:26.614Z,57
2022-09-29T13:48:33.564Z,57
2022-09-29T13:49:19.996Z,55
2022-09-29T13:50:29.057Z,55
2022-09-29T13:51:24.927Z,55
2022-09-29T13:52:32.130Z,55
2022-09-29T13:53:23.416Z,54
2022-09-29T13:54:25.204Z,55
2022-09-29T13:55:28.316Z,55
2022-09-29T13:56:29.918Z,53
2022-09-29T13:57:30.770Z,51
2022-09-29T13:58:31.406Z,48
2022-09-29T13:59:33.215Z,51
2022-09-29T14:00:27.017Z,53
2022-09-29T14:01:29.338Z,46
2022-09-29T14:02:28.610Z,50
2022-09-29T14:03:28.976Z,48
2022-09-29T14:04:21.247Z,46
2022-09-29T14:05:21.045Z,45
2022-09-29T14:06:40.348Z,44
2022-09-29T14:07:29.364Z,42
2022-09-29T14:08:22.931Z,45
2022-09-29T14:09:23.504Z,50
2022-09-29T14:10:24.416Z,46
2022-09-29T14:11:24.950Z,44
2022-09-29T14:12:21.368Z,42
2022-09-29T14:13:33.083Z,45
2022-09-29T14:14:27.880Z,47
2022-09-29T14:15:24.572Z,47
2022-09-29T14:16:26.753Z,46
2022-09-29T14:17:28.765Z,42
2022-09-29T14:18:21.718Z,40
2022-09-29T14:19:21.071Z,51
2022-09-29T14:20:31.264Z,52
2022-09-29T14:21:28.250Z,50
2022-09-29T14:22:22.902Z,49
2022-09-29T14:23:24.202Z,44
2022-09-29T14:24:25.035Z,43
2022-09-29T14:25:24.809Z,50
2022-09-29T14:26:24.511Z,48
2022-09-29T14:27:33.418Z,48
2022-09-29T14:28:26.677Z,46
2022-09-29T14:29:27.183Z,45
2022-09-29T14:30:34.242Z,49
2022-09-29T14:31:31.311Z,49
2022-09-29T14:32:22.399Z,48
2022-09-29T14:33:23.302Z,51
2022-09-29T14:34:23.571Z,53
2022-09-29T14:35:31.087Z,54
2022-09-29T14:36:24.866Z,56
2022-09-29T14:37:33.810Z,56
2022-09-29T14:38:32.542Z,53
2022-09-29T14:39:27.027Z,48
2022-09-29T14:40:22.047Z,46
2022-09-29T14:41:31.097Z,45
2022-09-29T14:42:27.177Z,49
2022-09-29T14:43:34.350Z,51
2022-09-29T14:44:34.921Z,54
2022-09-29T14:45:31.187Z,55
2022-09-29T14:46:25.514Z,55
2022-09-29T14:47:21.521Z,56
2022-09-29T14:48:21.975Z,54
2022-09-29T14:49:26.999Z,53
2022-09-29T14:50:24.900Z,54
2022-09-29T14:51:24.433Z,55
2022-09-29T14:52:29.693Z,53
2022-09-29T14:53:27.121Z,54
2022-09-29T14:54:21.190Z,51
2022-09-29T14:55:26.525Z,49
2022-09-29T14:56:27.891Z,51
2022-09-29T14:57:24.014Z,50
2022-09-29T14:58:25.408Z,49
2022-09-29T14:59:30.883Z,44
2022-09-29T15:00:27.032Z,44
2022-09-29T15:01:23.300Z,44
2022-09-29T15:02:24.312Z,45
2022-09-29T15:03:27.814Z,46
2022-09-29T15:04:23.251Z,45
2022-09-29T15:05:30.899Z,51
2022-09-29T15:06:30.791Z,52
2022-09-29T15:07:24.904Z,45
2022-09-29T15:08:26.510Z,46
2022-09-29T15:09:21.216Z,45
2022-09-29T15:10:19.707Z,44
2022-09-29T15:11:23.134Z,48
2022-09-29T15:12:29.702Z,45
2022-09-29T15:13:28.849Z,52
2022-09-29T15:14:28.439Z,52
2022-09-29T15:15:21.189Z,50
2022-09-29T15:16:26.975Z,51
2022-09-29T15:17:24.589Z,49
2022-09-29T15:18:24.968Z,50
2022-09-29T15:19:26.192Z,50
2022-09-29T15:20:28.961Z,49
2022-09-29T15:21:26.126Z,45
2022-09-29T15:22:22.147Z,46
2022-09-29T15:23:27.726Z,45
2022-09-29T15:24:28.042Z,46
2022-09-29T15:25:25.773Z,49
2022-09-29T15:26:21.748Z,50
2022-09-29T15:27:23.027Z,49
2022-09-29T15:28:26.519Z,43
2022-09-29T15:29:21.170Z,47
2022-09-29T15:30:31.403Z,49
2022-09-29T15:31:26.862Z,51
2022-09-29T15:32:25.749Z,50
2022-09-29T15:33:27.192Z,50
2022-09-29T15:34:27.726Z,50
2022-09-29T15:35:25.059Z,50
2022-09-29T15:36:24.682Z,52
2022-09-29T15:37:35.017Z,48
2022-09-29T15:38:21.824Z,52
2022-09-29T15:39:24.715Z,50
2022-09-29T15:40:22.254Z,50
2022-09-29T15:41:25.096Z,51
2022-09-29T15:42:26.841Z,51
2022-09-29T15:43:20.896Z,50
2022-09-29T15:44:33.518Z,51
2022-09-29T15:45:26.543Z,49
2022-09-29T15:46:23.082Z,48
2022-09-29T15:47:23.601Z,48
2022-09-29T15:48:21.222Z,51
2022-09-29T15:49:25.360Z,50
2022-09-29T15:50:20.857Z,54
2022-09-29T15:51:34.608Z,52
2022-09-29T15:52:27.387Z,52
2022-09-29T15:53:43.195Z,53
2022-09-29T15:54:35.478Z,55
2022-09-29T15:55:24.154Z,55
2022-09-29T15:56:31.535Z,58
2022-09-29T15:57:20.735Z,60
2022-09-29T15:58:34.074Z,66
2022-09-29T15:59:31.587Z,72
2022-09-29T16:00:23.464Z,76
2022-09-29T16:01:36.768Z,72
2022-09-29T16:02:29.016Z,77
2022-09-29T16:03:28.096Z,77
2022-09-29T16:04:22.820Z,79
2022-09-29T16:05:32.777Z,81
2022-09-29T16:06:33.430Z,82
2022-09-29T16:07:25.460Z,81
2022-09-29T16:08:33.102Z,82
2022-09-29T16:09:33.249Z,83
2022-09-29T16:10:27.714Z,84
2022-09-29T16:11:26.034Z,85
2022-09-29T16:12:30.942Z,85
2022-09-29T16:13:29.886Z,86
2022-09-29T16:14:23.823Z,86
2022-09-29T16:15:21.230Z,86
2022-09-29T16:16:29.156Z,86
2022-09-29T16:17:26.108Z,87
2022-09-29T16:18:22.316Z,86
2022-09-29T16:19:22.269Z,86
2022-09-29T16:20:27.101Z,87
2022-09-29T16:21:27.382Z,87
2022-09-29T16:22:33.569Z,87
2022-09-29T16:23:28.889Z,87
2022-09-29T16:24:26.247Z,87
2022-09-29T16:25:21.205Z,88
2022-09-29T16:26:25.020Z,86
2022-09-29T16:27:29.705Z,84
2022-09-29T16:28:24.138Z,83
2022-09-29T16:29:33.290Z,82
2022-09-29T16:30:28.884Z,83
2022-09-29T16:31:29.764Z,82
2022-09-29T16:32:25.109Z,81
2022-09-29T16:33:25.436Z,82
2022-09-29T16:34:22.344Z,81
2022-09-29T16:35:22.952Z,83
2022-09-29T16:36:34.444Z,85
2022-09-29T16:37:28.705Z,86
2022-09-29T16:38:28.409Z,87
2022-09-29T16:39:22.049Z,89
2022-09-29T16:40:27.594Z,88
2022-09-29T16:41:23.315Z,89
2022-09-29T16:42:22.858Z,90